Time;durP1;ratioP1;P1;durP2;ratioP2;P2;SDS_P1;SDS_P2;PMS_P1;PMS_P2;Temp;Humidity;BMP_temperature;BMP_pressure;BME280_temperature;BME280_humidity;BME280_pressure;Samples;Min_cycle;Max_cycle;Signal;HPM_P1;HPM_P2
2022/01/02 00:00:10;;;;;;;15.45;12.40;;;;;;;3.65;85.84;100233.69;5020469;28;20203;-78
2022/01/02 00:02:37;;;;;;;20.77;16.33;;;;;;;3.83;85.59;100234.97;5018728;28;20483;-79
2022/01/02 00:05:04;;;;;;;22.10;14.27;;;;;;;3.82;85.63;100241.06;5016652;28;20990;-80
2022/01/02 00:07:32;;;;;;;21.10;18.63;;;;;;;3.75;85.62;100250.78;5017098;28;20211;-78
2022/01/02 00:10:03;;;;;;;16.55;14.85;;;;;;;3.72;85.57;100262.97;5007980;28;20203;-79
2022/01/02 00:12:32;;;;;;;14.25;11.73;;;;;;;3.61;85.16;100252.00;5006538;28;20217;-79
2022/01/02 00:15:00;;;;;;;14.73;13.07;;;;;;;3.51;85.58;100241.84;5008284;28;20258;-78
2022/01/02 00:17:29;;;;;;;17.98;14.15;;;;;;;3.45;85.72;100241.13;5007258;28;20689;-78
2022/01/02 00:19:57;;;;;;;17.67;14.10;;;;;;;3.39;85.73;100243.88;5011031;28;20265;-78
2022/01/02 00:22:30;;;;;;;13.65;12.13;;;;;;;3.35;86.08;100245.72;5009237;28;20213;-79
2022/01/02 00:27:35;;;;;;;20.98;15.80;;;;;;;3.35;85.65;100239.63;4963812;28;20334;-76
2022/01/02 00:30:05;;;;;;;20.85;14.50;;;;;;;3.36;86.17;100230.97;4959001;28;20196;-78
2022/01/02 00:32:33;;;;;;;16.05;14.00;;;;;;;3.38;85.96;100234.41;4986370;28;20212;-80
2022/01/02 00:35:00;;;;;;;13.68;12.23;;;;;;;3.34;85.55;100228.41;4978595;28;20337;-78
2022/01/02 00:37:26;;;;;;;12.77;11.23;;;;;;;3.25;85.73;100220.84;4977808;28;20219;-77
2022/01/02 00:39:51;;;;;;;13.97;12.53;;;;;;;3.18;85.71;100217.53;4983914;28;20196;-79
2022/01/02 00:42:38;;;;;;;12.80;10.03;;;;;;;3.13;85.83;100206.38;4984007;28;20206;-77
2022/01/02 00:45:17;;;;;;;18.00;11.82;;;;;;;3.05;86.18;100206.59;4983094;28;20271;-78
2022/01/02 00:47:51;;;;;;;18.17;11.63;;;;;;;3.03;86.34;100204.91;4954102;28;20203;-76
2022/01/02 00:50:22;;;;;;;18.27;11.23;;;;;;;3.05;85.99;100203.13;4985403;28;20207;-78
2022/01/02 00:52:49;;;;;;;12.40;10.23;;;;;;;3.08;86.30;100203.06;4984462;28;20804;-77
2022/01/02 00:55:19;;;;;;;13.75;11.55;;;;;;;3.13;86.13;100205.53;4969535;28;20715;-78
2022/01/02 00:58:03;;;;;;;16.23;12.07;;;;;;;3.13;86.17;100197.75;4968790;28;20219;-80
2022/01/02 01:00:30;;;;;;;14.52;10.10;;;;;;;3.09;86.01;100196.97;4985671;28;20306;-81
2022/01/02 01:02:59;;;;;;;19.50;15.18;;;;;;;3.08;85.81;100195.28;4985615;28;20203;-77
2022/01/02 01:05:33;;;;;;;13.02;11.50;;;;;;;3.04;85.87;100194.50;4965461;28;20226;-80
2022/01/02 01:08:01;;;;;;;12.40;10.82;;;;;;;3.05;86.01;100192.75;4979302;28;20242;-80
2022/01/02 01:10:29;;;;;;;12.65;10.98;;;;;;;3.06;85.98;100192.72;4982458;28;20254;-79
2022/01/02 01:12:59;;;;;;;12.32;11.05;;;;;;;3.08;85.91;100190.09;4984913;28;20485;-77
2022/01/02 01:15:29;;;;;;;12.50;10.40;;;;;;;3.04;85.84;100178.91;4965834;28;20228;-77
2022/01/02 01:17:57;;;;;;;12.60;9.52;;;;;;;3.04;85.97;100178.06;4987401;28;20282;-80
2022/01/02 01:20:27;;;;;;;15.77;10.18;;;;;;;3.04;86.07;100170.28;4989419;28;20206;-77
2022/01/02 01:22:53;;;;;;;13.10;10.45;;;;;;;3.04;86.10;100173.72;4988603;28;20203;-80
2022/01/02 01:25:20;;;;;;;13.50;10.50;;;;;;;3.06;85.87;100174.56;4987047;28;20688;-77
2022/01/02 01:27:48;;;;;;;13.70;11.38;;;;;;;3.04;85.85;100173.72;4988421;28;20242;-79
2022/01/02 01:30:16;;;;;;;14.10;10.80;;;;;;;2.98;85.57;100153.13;4970673;28;20436;-77
2022/01/02 01:32:42;;;;;;;12.82;10.85;;;;;;;2.95;85.75;100154.94;4988877;28;20292;-77
2022/01/02 01:35:08;;;;;;;16.90;11.27;;;;;;;2.93;85.71;100148.94;4980634;28;20729;-77
2022/01/02 01:37:34;;;;;;;13.73;10.50;;;;;;;2.93;86.01;100148.94;4984796;28;20208;-78
2022/01/02 01:40:00;;;;;;;15.13;9.33;;;;;;;2.91;86.13;100142.91;4967303;28;20211;-80
2022/01/02 01:42:36;;;;;;;12.35;11.07;;;;;;;2.85;86.07;100136.97;4965918;28;20858;-78
2022/01/02 01:47:55;;;;;;;11.80;10.10;;;;;;;2.73;86.46;100133.81;4975757;28;21006;-77
2022/01/02 01:50:24;;;;;;;13.43;10.38;;;;;;;2.71;86.43;100126.09;4958472;28;20619;-77
2022/01/02 01:52:50;;;;;;;13.60;8.73;;;;;;;2.66;86.48;100126.19;4974436;28;20215;-77
2022/01/02 01:55:16;;;;;;;13.35;10.10;;;;;;;2.64;86.65;100127.94;4960522;28;20754;-79
2022/01/02 01:57:43;;;;;;;11.73;8.13;;;;;;;2.67;86.47;100134.81;4960741;28;20447;-78
2022/01/02 02:00:15;;;;;;;10.10;9.00;;;;;;;2.68;87.09;100133.94;4959177;28;20214;-79
2022/01/02 02:02:44;;;;;;;15.07;10.50;;;;;;;2.70;86.75;100126.97;4978397;28;20576;-78
2022/01/02 02:05:11;;;;;;;14.98;9.90;;;;;;;2.74;86.60;100128.59;4962591;28;20200;-78
2022/01/02 02:07:45;;;;;;;18.58;9.23;;;;;;;2.78;86.94;100129.38;4961822;28;20406;-80
2022/01/02 02:10:18;;;;;;;14.07;10.23;;;;;;;2.81;86.87;100124.13;4973905;28;20211;-78
2022/01/02 02:12:46;;;;;;;9.90;8.18;;;;;;;2.81;86.26;100116.34;4976053;28;20262;-81
2022/01/02 02:15:15;;;;;;;13.10;8.82;;;;;;;2.81;86.72;100117.19;4975277;28;20231;-77
2022/01/02 02:17:43;;;;;;;11.25;8.75;;;;;;;2.81;86.28;100099.03;4969544;28;20211;-81
2022/01/02 02:20:18;;;;;;;15.15;10.07;;;;;;;2.76;85.97;100110.41;4958978;28;20281;-80
2022/01/02 02:22:47;;;;;;;14.57;9.73;;;;;;;2.66;86.18;100108.03;4963168;28;20206;-80
2022/01/02 02:25:17;;;;;;;12.57;9.98;;;;;;;2.60;86.44;100115.94;4981969;28;20203;-77
2022/01/02 02:27:57;;;;;;;11.82;9.50;;;;;;;2.56;86.72;100109.13;4983552;28;20360;-77
2022/01/02 02:30:25;;;;;;;13.00;10.45;;;;;;;2.55;86.67;100098.78;4962194;28;20253;-78
2022/01/02 02:32:53;;;;;;;17.17;10.50;;;;;;;2.50;86.76;100098.03;4978982;28;20258;-78
2022/01/02 02:35:21;;;;;;;23.23;14.18;;;;;;;2.49;86.70;100098.94;4967771;28;20513;-77
2022/01/02 02:37:46;;;;;;;18.70;10.87;;;;;;;2.50;87.18;100100.63;4966498;28;20311;-80
2022/01/02 02:40:21;;;;;;;18.20;12.30;;;;;;;2.53;86.73;100097.97;4965765;28;20513;-80
2022/01/02 02:51:09;;;;;;;12.25;9.60;;;;;;;2.41;86.96;100078.38;4978095;28;20211;-80
2022/01/02 02:53:40;;;;;;;11.40;8.30;;;;;;;2.41;86.89;100084.41;4977468;28;20231;-80
2022/01/02 02:58:58;;;;;;;17.50;11.90;;;;;;;2.41;86.81;100079.22;4949967;28;20212;-79
2022/01/02 03:01:28;;;;;;;12.70;9.75;;;;;;;2.43;86.86;100076.56;4965287;28;20517;-81
2022/01/02 03:03:55;;;;;;;10.55;9.35;;;;;;;2.44;86.69;100078.28;4967227;28;20196;-78
2022/01/02 03:06:21;;;;;;;13.32;10.98;;;;;;;2.47;86.51;100067.00;4967125;28;20215;-79
2022/01/02 03:08:48;;;;;;;13.10;10.55;;;;;;;2.47;86.73;100069.59;4982228;28;20200;-78
2022/01/02 03:11:16;;;;;;;10.60;9.43;;;;;;;2.46;86.44;100058.38;4987191;28;20231;-80
2022/01/02 03:13:43;;;;;;;14.20;10.50;;;;;;;2.49;86.65;100065.22;4988459;28;20897;-78
2022/01/02 03:16:09;;;;;;;13.95;9.40;;;;;;;2.49;86.46;100066.09;4974013;28;20518;-77
2022/01/02 03:18:35;;;;;;;15.30;10.37;;;;;;;2.51;86.63;100063.44;4992367;28;20208;-80
2022/01/02 03:21:02;;;;;;;10.50;9.50;;;;;;;2.52;86.62;100059.97;4974899;28;20195;-77
2022/01/02 03:23:27;;;;;;;17.20;10.15;;;;;;;2.52;86.65;100065.16;4985323;28;20212;-80
2022/01/02 03:25:53;;;;;;;11.70;9.20;;;;;;;2.49;86.40;100060.91;4991945;28;20963;-77
2022/01/02 03:28:20;;;;;;;13.68;9.32;;;;;;;2.47;86.20;100051.44;4974967;28;20531;-79
2022/01/02 03:30:46;;;;;;;13.50;10.10;;;;;;;2.40;86.17;100049.00;4976348;28;20497;-81
2022/01/02 03:33:12;;;;;;;13.33;10.23;;;;;;;2.38;86.26;100042.16;4977459;28;20684;-79
2022/01/02 03:35:38;;;;;;;15.50;12.40;;;;;;;2.36;86.29;100039.56;4986128;28;20231;-80
2022/01/02 03:38:04;;;;;;;15.47;11.73;;;;;;;2.33;86.54;100044.84;4953280;28;20537;-80
2022/01/02 03:40:30;;;;;;;17.48;12.48;;;;;;;2.27;86.46;100037.22;4995717;28;20459;-78
2022/01/02 03:42:56;;;;;;;15.00;12.23;;;;;;;2.19;86.55;100045.16;4996855;28;20238;-78
2022/01/02 03:45:22;;;;;;;14.40;10.73;;;;;;;2.12;86.39;100034.94;4993276;28;20466;-80
2022/01/02 03:47:48;;;;;;;14.75;9.70;;;;;;;2.08;86.91;100028.13;4968115;28;20473;-82
2022/01/02 03:50:15;;;;;;;10.55;9.00;;;;;;;2.07;86.74;100016.06;4977387;28;20350;-81
2022/01/02 03:52:41;;;;;;;11.52;10.00;;;;;;;2.04;86.55;100011.81;4982790;28;20207;-79
2022/01/02 03:55:07;;;;;;;15.30;10.40;;;;;;;2.01;86.87;100011.03;4990471;28;20234;-80
2022/01/02 03:57:32;;;;;;;11.15;8.77;;;;;;;2.01;86.51;100017.06;4987898;28;20686;-78
2022/01/02 03:59:58;;;;;;;10.63;8.63;;;;;;;2.02;86.68;100010.97;4992234;28;20204;-80
2022/01/02 04:02:23;;;;;;;14.02;10.68;;;;;;;2.15;86.85;100006.38;4970688;28;20652;-81
2022/01/02 04:04:49;;;;;;;12.20;9.83;;;;;;;2.14;86.64;100008.13;4993025;28;20231;-82
2022/01/02 04:07:15;;;;;;;13.07;8.70;;;;;;;2.12;86.78;99994.34;4991757;28;20227;-81
2022/01/02 04:09:41;;;;;;;12.97;9.73;;;;;;;2.12;86.70;100006.44;4991008;28;20686;-77
2022/01/02 04:12:06;;;;;;;10.60;9.50;;;;;;;2.11;86.58;100003.00;4977372;28;20204;-81
2022/01/02 04:14:32;;;;;;;12.75;11.63;;;;;;;2.14;86.48;99996.91;4975040;28;20376;-79
2022/01/02 04:16:58;;;;;;;10.23;8.40;;;;;;;2.14;86.51;99997.75;4976266;28;20215;-81
2022/01/02 04:19:23;;;;;;;10.60;8.13;;;;;;;2.16;86.27;100003.75;4990176;28;20234;-80
2022/01/02 04:21:49;;;;;;;14.97;9.30;;;;;;;2.15;86.26;99998.59;4972753;28;20293;-80
2022/01/02 04:24:15;;;;;;;10.90;8.43;;;;;;;2.11;86.39;100002.16;4972047;28;20272;-78
2022/01/02 04:26:40;;;;;;;11.53;8.73;;;;;;;2.08;86.46;99992.72;4987592;28;20569;-77
2022/01/02 04:29:06;;;;;;;13.30;9.40;;;;;;;2.05;86.18;99990.16;4990654;28;20285;-78
2022/01/02 04:31:32;;;;;;;9.83;8.00;;;;;;;2.05;86.24;99994.50;4976023;28;21148;-80
2022/01/02 04:33:59;;;;;;;13.83;9.93;;;;;;;2.04;86.25;99993.66;4992424;28;20294;-77
2022/01/02 04:36:27;;;;;;;11.50;9.35;;;;;;;2.04;86.30;99985.03;4982951;28;20230;-83
2022/01/02 04:38:53;;;;;;;21.30;12.98;;;;;;;2.03;86.17;99981.59;4984367;28;20199;-78
2022/01/02 04:41:19;;;;;;;25.20;16.00;;;;;;;2.07;86.55;99964.25;4982856;28;20273;-80
2022/01/02 04:43:44;;;;;;;36.03;19.40;;;;;;;2.07;86.53;99964.25;4987718;28;20212;-80
2022/01/02 04:46:10;;;;;;;27.63;17.25;;;;;;;2.05;86.36;99964.25;4974040;28;20259;-81
2022/01/02 04:48:36;;;;;;;28.53;17.10;;;;;;;2.07;86.46;99962.50;4975096;28;20238;-80
2022/01/02 04:51:01;;;;;;;25.60;17.23;;;;;;;2.06;86.39;99962.53;4977811;28;20210;-77
2022/01/02 04:53:30;;;;;;;26.58;17.50;;;;;;;2.06;86.18;99962.53;4984679;28;20722;-81
2022/01/02 04:55:55;;;;;;;15.93;11.25;;;;;;;1.99;86.07;99954.03;4970594;28;20410;-79
2022/01/02 04:58:22;;;;;;;16.48;10.77;;;;;;;1.93;86.70;99960.22;4986920;28;20242;-82
2022/01/02 05:00:47;;;;;;;17.13;12.27;;;;;;;1.94;86.90;99948.97;4989603;28;20895;-80
2022/01/02 05:03:13;;;;;;;16.57;11.00;;;;;;;1.94;86.50;99953.28;4978421;28;20219;-79
2022/01/02 05:05:39;;;;;;;14.00;9.43;;;;;;;1.93;86.56;99955.03;4992235;28;20377;-79
2022/01/02 05:08:04;;;;;;;13.27;11.90;;;;;;;1.92;86.70;99961.13;4983049;28;20512;-79
2022/01/02 05:10:31;;;;;;;16.50;12.07;;;;;;;1.91;86.49;99943.84;4983949;28;20198;-80
2022/01/02 05:12:56;;;;;;;15.60;12.57;;;;;;;1.93;86.91;99943.84;4971767;28;20203;-82
2022/01/02 05:15:22;;;;;;;19.80;13.03;;;;;;;1.93;86.86;99954.19;4986218;28;20477;-77
2022/01/02 05:17:49;;;;;;;20.67;13.27;;;;;;;1.91;86.80;99941.25;4978111;28;20264;-80
2022/01/02 05:20:14;;;;;;;12.00;10.30;;;;;;;1.89;86.76;99944.78;4994714;28;20231;-78
2022/01/02 05:22:40;;;;;;;15.57;10.90;;;;;;;1.87;86.63;99952.59;4976081;28;20687;-82
2022/01/02 05:25:06;;;;;;;19.17;14.13;;;;;;;1.89;87.01;99945.66;4985262;28;20386;-80
2022/01/02 05:27:32;;;;;;;21.95;13.65;;;;;;;1.92;87.00;99927.44;4974213;28;20498;-81
2022/01/02 05:29:58;;;;;;;15.70;11.20;;;;;;;1.93;86.53;99923.97;4972237;28;20504;-80
2022/01/02 05:32:23;;;;;;;16.77;12.77;;;;;;;1.92;87.08;99924.84;4974270;28;20350;-78
2022/01/02 05:34:49;;;;;;;24.30;16.05;;;;;;;1.94;86.61;99917.88;4967725;28;20723;-82
2022/01/02 05:37:15;;;;;;;32.47;21.47;;;;;;;1.97;86.86;99925.59;4972308;28;20298;-78
2022/01/02 05:39:40;;;;;;;26.10;16.10;;;;;;;2.03;86.86;99918.56;4978553;28;20212;-78
2022/01/02 05:42:07;;;;;;;29.00;16.40;;;;;;;2.05;86.95;99916.78;4982999;28;20204;-78
2022/01/02 05:44:32;;;;;;;37.17;23.05;;;;;;;2.07;86.59;99909.81;4983247;28;20470;-78
2022/01/02 05:46:58;;;;;;;30.20;18.13;;;;;;;2.07;86.82;99899.47;4974360;28;20228;-81
2022/01/02 05:49:24;;;;;;;26.10;17.30;;;;;;;2.10;86.79;99912.34;4973599;28;20258;-78
2022/01/02 05:51:49;;;;;;;26.30;21.67;;;;;;;2.14;86.98;99908.81;4974056;28;20770;-79
2022/01/02 05:54:15;;;;;;;39.97;22.00;;;;;;;2.16;86.52;99907.88;4965491;28;20216;-78
2022/01/02 05:56:40;;;;;;;44.33;22.57;;;;;;;2.20;86.50;99909.50;4977954;28;20217;-81
2022/01/02 05:59:07;;;;;;;30.25;21.42;;;;;;;2.25;86.99;99911.13;4965084;28;20351;-81
2022/01/02 06:01:32;;;;;;;47.63;26.90;;;;;;;2.31;86.77;99914.41;4960733;28;21033;-79
2022/01/02 06:03:59;;;;;;;32.37;22.40;;;;;;;2.35;86.60;99908.28;4961765;28;20693;-80
2022/01/02 06:06:24;;;;;;;38.60;21.63;;;;;;;2.38;86.90;99912.53;4971371;28;20321;-78
2022/01/02 06:08:50;;;;;;;36.10;23.17;;;;;;;2.43;86.46;99908.06;4983118;28;20196;-79
2022/01/02 06:11:15;;;;;;;33.80;20.83;;;;;;;2.45;86.45;99903.69;4980348;28;20223;-79
2022/01/02 06:13:42;;;;;;;39.07;19.73;;;;;;;2.48;86.91;99902.75;4971856;28;20204;-81
2022/01/02 06:16:11;;;;;;;33.97;18.58;;;;;;;2.51;86.92;99911.31;4963964;28;20232;-80
2022/01/02 06:18:36;;;;;;;33.80;19.60;;;;;;;2.55;86.70;99907.75;4967881;28;20496;-77
2022/01/02 06:21:02;;;;;;;39.23;19.80;;;;;;;2.59;86.49;99905.91;4977997;28;20220;-79
2022/01/02 06:23:27;;;;;;;29.40;18.03;;;;;;;2.63;86.77;99894.59;4973981;28;20736;-79
2022/01/02 06:25:53;;;;;;;31.73;17.03;;;;;;;2.66;86.68;99891.91;4984885;23;20800;-79
2022/01/02 06:28:19;;;;;;;24.23;15.02;;;;;;;2.68;86.41;99884.94;4979906;28;20204;-78
2022/01/02 06:30:45;;;;;;;30.83;15.60;;;;;;;2.70;86.85;99890.94;4980298;28;20490;-78
2022/01/02 06:33:10;;;;;;;25.67;15.00;;;;;;;2.73;86.85;99897.75;4969436;28;20263;-79
2022/01/02 06:35:36;;;;;;;21.10;14.03;;;;;;;2.76;86.69;99902.91;4970248;28;20343;-78
2022/01/02 06:38:21;;;;;;;21.90;16.70;;;;;;;2.80;86.78;99900.16;4991875;28;20447;-79
2022/01/02 06:40:51;;;;;;;18.55;12.45;;;;;;;2.79;86.85;99901.06;4994912;28;20193;-78
2022/01/02 06:43:20;;;;;;;19.58;14.02;;;;;;;2.78;86.94;99898.50;4986165;28;20204;-78
2022/01/02 06:45:46;;;;;;;20.88;13.00;;;;;;;2.79;87.07;99890.69;4989448;28;20224;-78
2022/01/02 06:48:12;;;;;;;20.30;14.40;;;;;;;2.83;87.28;99889.69;4997200;28;20202;-78
2022/01/02 06:50:39;;;;;;;17.57;12.13;;;;;;;2.86;87.18;99878.38;4970855;28;20204;-78
2022/01/02 06:53:06;;;;;;;18.88;13.52;;;;;;;2.90;87.21;99879.16;4977944;28;20601;-78
2022/01/02 06:55:32;;;;;;;18.88;12.55;;;;;;;2.95;87.33;99893.72;4968032;28;20247;-79
2022/01/02 06:57:58;;;;;;;17.13;12.27;;;;;;;3.00;87.45;99886.66;4969931;28;20287;-78
2022/01/02 07:00:24;;;;;;;25.55;11.98;;;;;;;3.06;87.38;99893.41;4970100;28;20200;-79
2022/01/02 07:02:50;;;;;;;19.30;12.95;;;;;;;3.09;87.52;99893.31;4975423;28;20208;-79
2022/01/02 07:05:18;;;;;;;18.00;11.73;;;;;;;3.14;86.99;99899.22;4965513;28;20307;-79
2022/01/02 07:07:45;;;;;;;19.30;12.48;;;;;;;3.15;87.14;99906.13;4967802;28;20236;-78
2022/01/02 07:10:14;;;;;;;17.08;10.65;;;;;;;3.18;86.92;99905.19;4972215;28;20917;-78
2022/01/02 07:12:39;;;;;;;19.80;13.52;;;;;;;3.19;87.15;99912.09;4971523;28;20652;-79
2022/01/02 07:15:07;;;;;;;16.10;10.60;;;;;;;3.22;87.34;99907.66;4973767;28;20240;-77
2022/01/02 07:17:34;;;;;;;15.20;11.63;;;;;;;3.23;87.10;99914.53;4975674;28;20192;-78
2022/01/02 07:19:59;;;;;;;12.63;10.45;;;;;;;3.26;87.21;99919.63;4980236;28;20211;-79
2022/01/02 07:22:24;;;;;;;18.27;10.00;;;;;;;3.28;87.33;99912.66;4976857;28;20589;-79
2022/01/02 07:24:53;;;;;;;14.37;10.30;;;;;;;3.29;87.24;99923.88;4980491;28;20255;-79
2022/01/02 07:27:19;;;;;;;14.15;10.80;;;;;;;3.28;87.12;99920.44;5004552;28;20254;-78
2022/01/02 07:29:46;;;;;;;14.48;10.55;;;;;;;3.28;87.41;99920.44;5008725;28;20421;-79
2022/01/02 07:32:12;;;;;;;13.45;9.60;;;;;;;3.39;87.48;99924.50;5005347;28;20492;-79
2022/01/02 07:34:37;;;;;;;11.53;8.57;;;;;;;3.36;87.11;99929.78;5009674;28;20220;-78
2022/01/02 07:37:03;;;;;;;14.63;9.97;;;;;;;3.31;87.05;99922.94;5010214;28;20549;-79
2022/01/02 07:39:28;;;;;;;10.60;7.97;;;;;;;3.25;87.18;99923.13;5008322;28;20215;-80
2022/01/02 07:41:54;;;;;;;10.50;9.27;;;;;;;3.20;87.32;99922.41;5007624;28;20207;-80
2022/01/02 07:44:26;;;;;;;8.40;7.57;;;;;;;3.21;87.55;99918.91;5008313;28;20215;-79
2022/01/02 07:46:52;;;;;;;11.20;7.33;;;;;;;3.21;87.64;99928.44;5006857;28;20231;-79
2022/01/02 07:49:17;;;;;;;11.60;9.70;;;;;;;3.22;87.57;99922.38;5002155;28;20457;-78
2022/01/02 07:51:43;;;;;;;19.57;12.43;;;;;;;3.23;87.53;99921.47;5002765;28;20702;-79
2022/01/02 07:54:08;;;;;;;11.67;9.40;;;;;;;3.25;87.52;99907.56;5003216;28;20496;-79
2022/01/02 07:56:34;;;;;;;13.23;8.87;;;;;;;3.27;88.20;99899.75;5000675;28;20223;-80
2022/01/02 07:58:59;;;;;;;9.85;8.18;;;;;;;3.29;87.75;99905.72;4611969;28;10008475;-80
2022/01/02 08:01:26;;;;;;;13.70;9.20;;;;;;;3.32;87.88;99900.44;4983096;28;20207;-79
2022/01/02 08:03:51;;;;;;;9.38;8.27;;;;;;;3.38;87.89;99915.00;4982826;28;20257;-79
2022/01/02 08:06:17;;;;;;;11.13;9.33;;;;;;;3.46;87.81;99921.66;4984099;28;20237;-78
2022/01/02 08:08:44;;;;;;;9.27;7.70;;;;;;;3.54;87.96;99918.84;4982494;28;20212;-79
2022/01/02 08:11:09;;;;;;;10.00;9.00;;;;;;;3.61;87.76;99919.50;4983407;28;20476;-79
2022/01/02 08:13:35;;;;;;;11.93;9.67;;;;;;;3.66;87.65;99915.88;4979578;28;20207;-79
2022/01/02 08:16:00;;;;;;;8.80;7.87;;;;;;;3.72;87.89;99901.84;4984156;28;20236;-79
2022/01/02 08:18:25;;;;;;;8.47;7.47;;;;;;;3.79;87.64;99918.94;4981061;28;20219;-79
2022/01/02 08:20:51;;;;;;;11.50;8.17;;;;;;;3.86;87.46;99919.59;4982861;28;20561;-79
2022/01/02 08:23:17;;;;;;;12.30;9.60;;;;;;;3.92;87.52;99919.44;4981847;28;20445;-79
2022/01/02 08:25:42;;;;;;;14.37;8.40;;;;;;;3.99;87.41;99921.75;4980502;28;20248;-79
2022/01/02 08:28:07;;;;;;;12.97;9.90;;;;;;;4.06;87.33;99943.22;4978328;28;20538;-78
2022/01/02 08:30:33;;;;;;;12.30;9.83;;;;;;;4.14;87.20;99949.03;4979188;28;20207;-79
2022/01/02 08:32:58;;;;;;;12.63;11.00;;;;;;;4.20;87.25;99948.81;4978384;28;20216;-79
2022/01/02 08:35:24;;;;;;;12.57;11.10;;;;;;;4.28;87.16;99937.34;4984845;28;20232;-79
2022/01/02 08:37:50;;;;;;;12.80;11.15;;;;;;;4.35;87.23;99949.25;4978712;28;20236;-78
2022/01/02 08:40:16;;;;;;;12.97;10.10;;;;;;;4.42;86.99;99948.97;4978003;28;20227;-78
2022/01/02 08:42:41;;;;;;;15.67;9.87;;;;;;;4.52;87.08;99940.88;4980056;28;20216;-79
2022/01/02 08:45:08;;;;;;;12.27;10.07;;;;;;;4.58;87.01;99946.72;4975462;28;20848;-78
2022/01/02 08:47:33;;;;;;;17.52;11.95;;;;;;;4.66;86.71;99938.66;4993712;28;20226;-79
2022/01/02 08:49:59;;;;;;;11.80;9.73;;;;;;;4.75;86.59;99933.16;4977765;28;20204;-78
2022/01/02 08:52:25;;;;;;;13.47;9.10;;;;;;;4.87;86.27;99918.84;4976426;28;20220;-79
2022/01/02 08:54:50;;;;;;;11.17;7.80;;;;;;;5.07;86.31;99923.34;4976929;28;20223;-79
2022/01/02 08:57:17;;;;;;;12.13;9.67;;;;;;;5.32;86.01;99934.59;4975842;28;20773;-78
2022/01/02 08:59:42;;;;;;;15.48;10.88;;;;;;;5.55;85.81;99935.47;4973854;28;20463;-79
2022/01/02 09:02:08;;;;;;;10.27;8.87;;;;;;;5.72;84.87;99934.81;4976044;28;20432;-78
2022/01/02 09:04:34;;;;;;;10.60;8.37;;;;;;;5.85;84.47;99930.00;4981419;28;20466;-78
2022/01/02 09:07:01;;;;;;;9.20;8.00;;;;;;;5.89;84.36;99927.22;4981142;28;20253;-78
2022/01/02 09:09:27;;;;;;;8.45;6.82;;;;;;;5.89;84.09;99944.63;4985104;28;20200;-78
2022/01/02 09:11:52;;;;;;;8.30;7.40;;;;;;;5.92;84.52;99929.69;4985104;28;20208;-78
2022/01/02 09:14:18;;;;;;;7.53;6.30;;;;;;;6.11;84.21;99936.81;4982837;28;20459;-78
2022/01/02 09:16:44;;;;;;;10.40;7.73;;;;;;;6.28;83.97;99941.34;4974588;28;20606;-79
2022/01/02 09:19:11;;;;;;;9.23;8.30;;;;;;;6.27;83.35;99948.34;4976037;28;20312;-80
2022/01/02 09:21:36;;;;;;;8.23;7.07;;;;;;;6.19;83.33;99950.41;4976863;28;20215;-80
2022/01/02 09:24:04;;;;;;;8.07;7.27;;;;;;;6.10;83.41;99966.41;4976208;28;20207;-80
2022/01/02 09:26:29;;;;;;;9.68;7.07;;;;;;;6.02;84.00;99960.63;4977071;28;20275;-80
2022/01/02 09:28:55;;;;;;;10.63;7.10;;;;;;;5.98;83.90;99960.75;4997016;28;20208;-79
2022/01/02 09:31:21;;;;;;;10.93;8.07;;;;;;;5.93;84.37;99960.09;4992946;28;20278;-79
2022/01/02 09:33:46;;;;;;;9.57;7.50;;;;;;;5.92;84.38;99960.97;4991175;28;20351;-78
2022/01/02 09:36:12;;;;;;;7.30;6.60;;;;;;;5.91;84.46;99969.72;4991629;28;20226;-78
2022/01/02 09:38:37;;;;;;;10.50;7.70;;;;;;;5.92;84.44;99975.78;4989523;28;20226;-77
2022/01/02 09:41:04;;;;;;;9.50;8.53;;;;;;;5.91;84.45;99961.91;4982091;28;20219;-79
2022/01/02 09:43:30;;;;;;;13.55;8.73;;;;;;;5.93;84.63;99967.03;4990972;28;20460;-79
2022/01/02 09:45:57;;;;;;;11.87;10.10;;;;;;;5.94;84.93;99973.97;4991869;28;20231;-79
2022/01/02 09:48:22;;;;;;;11.93;10.68;;;;;;;5.96;84.65;99966.94;4989738;28;20212;-78
2022/01/02 09:50:50;;;;;;;17.33;15.57;;;;;;;5.97;84.66;99976.50;4986878;28;20207;-79
2022/01/02 09:53:16;;;;;;;14.52;13.00;;;;;;;5.98;84.72;99983.38;4988462;28;20205;-78
2022/01/02 09:55:41;;;;;;;16.73;13.27;;;;;;;5.98;84.68;99980.78;4985550;28;20245;-78
2022/01/02 09:58:11;;;;;;;14.57;12.10;;;;;;;6.00;84.73;99978.97;4989060;28;20456;-78
2022/01/02 10:00:43;;;;;;;9.65;7.80;;;;;;;6.05;84.86;99983.97;4986748;28;20199;-79
2022/01/02 10:03:10;;;;;;;8.20;6.80;;;;;;;6.15;84.54;99988.78;4988188;28;20231;-79
2022/01/02 10:05:54;;;;;;;10.88;9.57;;;;;;;6.32;83.46;99982.91;4988266;28;20845;-78
2022/01/02 10:08:28;;;;;;;8.70;8.00;;;;;;;6.51;83.25;100001.28;4987595;28;20272;-79
2022/01/02 10:10:59;;;;;;;7.25;6.65;;;;;;;6.76;82.09;99989.84;4988599;28;20211;-78
2022/01/02 10:13:37;;;;;;;6.55;5.10;;;;;;;6.98;81.13;99995.84;4986706;28;20218;-78
2022/01/02 10:16:04;;;;;;;3.22;3.00;;;;;;;7.18;79.90;99992.34;4983605;28;20526;-78
2022/01/02 10:18:29;;;;;;;4.10;2.65;;;;;;;7.40;78.97;99983.56;4987509;28;20196;-79
2022/01/02 10:20:58;;;;;;;1.63;1.40;;;;;;;7.63;76.96;99972.94;4986761;28;20211;-79
2022/01/02 10:23:24;;;;;;;1.63;1.52;;;;;;;7.88;75.61;99977.03;4985253;28;20212;-79
2022/01/02 10:25:59;;;;;;;3.13;1.88;;;;;;;8.14;74.14;99978.44;4981681;28;20228;-79
2022/01/02 10:28:41;;;;;;;2.85;2.47;;;;;;;8.39;71.17;99985.97;4976766;28;20258;-79
2022/01/02 10:31:12;;;;;;;2.80;1.80;;;;;;;8.64;70.01;99988.22;4973994;28;20275;-78
2022/01/02 10:33:59;;;;;;;2.10;1.70;;;;;;;8.85;68.28;99981.91;4975165;28;20422;-78
2022/01/02 10:36:32;;;;;;;2.47;2.20;;;;;;;9.03;67.55;99972.28;4977964;28;20234;-79
2022/01/02 10:39:00;;;;;;;1.83;1.40;;;;;;;9.22;65.57;99960.84;4975377;28;20211;-78
2022/01/02 10:41:53;;;;;;;2.20;1.65;;;;;;;9.36;65.00;100002.91;4972394;28;20215;-78
2022/01/02 10:44:34;;;;;;;3.97;3.58;;;;;;;9.48;64.20;100007.53;4966820;28;20216;-79
2022/01/02 10:47:07;;;;;;;2.45;2.20;;;;;;;9.56;63.66;99983.53;4977692;28;20307;-78
2022/01/02 10:49:55;;;;;;;3.35;2.20;;;;;;;9.63;63.38;99997.16;4976111;28;20212;-78
2022/01/02 10:52:22;;;;;;;4.97;2.58;;;;;;;9.68;63.38;100022.19;4971650;28;20201;-80
2022/01/02 10:54:48;;;;;;;2.17;1.65;;;;;;;9.71;62.36;100014.16;4975510;28;20239;-80
2022/01/02 10:57:14;;;;;;;1.75;1.65;;;;;;;9.77;62.11;100028.72;4984558;28;20211;-80
2022/01/02 10:59:41;;;;;;;2.97;2.70;;;;;;;9.76;62.34;100021.78;4995110;28;20557;-81
2022/01/02 11:02:10;;;;;;;5.90;4.57;;;;;;;9.84;61.58;100019.59;4993357;28;20596;-80
2022/01/02 11:04:41;;;;;;;2.55;2.35;;;;;;;9.85;61.10;100013.41;4995453;28;20302;-80
2022/01/02 11:07:08;;;;;;;2.13;1.60;;;;;;;9.90;60.73;100003.53;4971968;28;20274;-80
2022/01/02 11:09:33;;;;;;;1.65;1.55;;;;;;;9.97;59.71;99998.81;4994394;28;20215;-80
2022/01/02 11:12:00;;;;;;;1.73;1.50;;;;;;;10.05;59.35;99995.75;4993316;28;20195;-80
2022/01/02 11:14:25;;;;;;;2.45;1.73;;;;;;;10.13;58.84;99990.94;4976456;28;21015;-80
2022/01/02 11:16:51;;;;;;;2.20;2.00;;;;;;;10.18;58.76;99994.16;4993611;28;20306;-81
2022/01/02 11:19:18;;;;;;;2.37;1.97;;;;;;;10.22;58.30;99998.28;4993594;28;20302;-81
2022/01/02 11:21:46;;;;;;;4.15;2.55;;;;;;;10.28;57.59;99997.13;4993077;28;20935;-81
2022/01/02 11:24:18;;;;;;;2.63;2.00;;;;;;;10.32;57.51;99988.16;4975686;28;20207;-79
2022/01/02 11:26:57;;;;;;;2.15;1.85;;;;;;;10.32;57.35;99968.00;4993058;28;20271;-81
2022/01/02 11:29:30;;;;;;;4.20;2.33;;;;;;;10.35;57.16;99967.81;4992293;28;20242;-80
2022/01/02 11:31:56;;;;;;;1.70;1.60;;;;;;;10.47;56.44;99961.00;5020357;28;20491;-81
2022/01/02 11:34:25;;;;;;;2.03;1.83;;;;;;;10.53;55.81;99959.78;5027645;28;20336;-81
2022/01/02 11:37:16;;;;;;;1.75;1.48;;;;;;;10.61;55.89;99949.69;5019621;28;20464;-80
2022/01/02 11:40:00;;;;;;;1.67;1.45;;;;;;;10.64;55.52;99925.91;5021276;28;20199;-79
2022/01/02 11:42:46;;;;;;;2.70;1.80;;;;;;;10.71;55.00;99942.13;4991305;28;20203;-80
2022/01/02 11:45:40;;;;;;;1.60;1.50;;;;;;;10.77;54.88;99932.09;4988748;28;20290;-79